sensor_id;sensor_type;location;lat;lon;timestamp;P1;durP1;ratioP1;P2;durP2;ratioP2
52586;SDS011;38480;52.724;6.436;2022-09-06T00:00:31;8.10;;;3.40;;
52586;SDS011;38480;52.724;6.436;2022-09-06T00:02:58;7.83;;;3.47;;
52586;SDS011;38480;52.724;6.436;2022-09-06T00:05:25;5.43;;;3.17;;
52586;SDS011;38480;52.724;6.436;2022-09-06T00:07:51;9.43;;;3.60;;
52586;SDS011;38480;52.724;6.436;2022-09-06T00:10:17;5.60;;;3.30;;
52586;SDS011;38480;52.724;6.436;2022-09-06T00:12:43;9.83;;;3.57;;
52586;SDS011;38480;52.724;6.436;2022-09-06T00:15:10;6.03;;;3.77;;
52586;SDS011;38480;52.724;6.436;2022-09-06T00:17:36;7.20;;;3.50;;
52586;SDS011;38480;52.724;6.436;2022-09-06T00:20:02;6.53;;;3.93;;
52586;SDS011;38480;52.724;6.436;2022-09-06T00:22:28;5.30;;;3.70;;
52586;SDS011;38480;52.724;6.436;2022-09-06T00:24:54;10.67;;;3.53;;
52586;SDS011;38480;52.724;6.436;2022-09-06T00:27:21;6.23;;;3.20;;
52586;SDS011;38480;52.724;6.436;2022-09-06T00:29:47;5.27;;;3.40;;
52586;SDS011;38480;52.724;6.436;2022-09-06T00:32:13;5.40;;;3.13;;
52586;SDS011;38480;52.724;6.436;2022-09-06T00:34:39;5.47;;;3.50;;
52586;SDS011;38480;52.724;6.436;2022-09-06T00:37:06;6.17;;;4.00;;
52586;SDS011;38480;52.724;6.436;2022-09-06T00:39:32;7.90;;;4.40;;
52586;SDS011;38480;52.724;6.436;2022-09-06T00:41:58;6.47;;;4.30;;
52586;SDS011;38480;52.724;6.436;2022-09-06T00:44:24;5.27;;;3.90;;
52586;SDS011;38480;52.724;6.436;2022-09-06T00:46:51;5.77;;;3.70;;
52586;SDS011;38480;52.724;6.436;2022-09-06T00:49:18;5.97;;;3.90;;
52586;SDS011;38480;52.724;6.436;2022-09-06T00:51:52;5.40;;;4.30;;
52586;SDS011;38480;52.724;6.436;2022-09-06T00:54:20;5.43;;;4.50;;
52586;SDS011;38480;52.724;6.436;2022-09-06T00:56:46;6.43;;;4.70;;
52586;SDS011;38480;52.724;6.436;2022-09-06T00:59:13;8.27;;;4.27;;
52586;SDS011;38480;52.724;6.436;2022-09-06T01:01:39;7.67;;;4.47;;
52586;SDS011;38480;52.724;6.436;2022-09-06T01:04:06;6.43;;;4.57;;
52586;SDS011;38480;52.724;6.436;2022-09-06T01:12:02;7.63;;;4.40;;
52586;SDS011;38480;52.724;6.436;2022-09-06T01:17:20;7.70;;;4.30;;
52586;SDS011;38480;52.724;6.436;2022-09-06T01:30:42;7.60;;;4.27;;
52586;SDS011;38480;52.724;6.436;2022-09-06T01:33:13;7.57;;;4.43;;
52586;SDS011;38480;52.724;6.436;2022-09-06T01:35:48;7.03;;;4.97;;
52586;SDS011;38480;52.724;6.436;2022-09-06T01:38:15;5.20;;;4.53;;
52586;SDS011;38480;52.724;6.436;2022-09-06T01:40:41;7.43;;;4.73;;
52586;SDS011;38480;52.724;6.436;2022-09-06T01:43:09;6.10;;;5.20;;
52586;SDS011;38480;52.724;6.436;2022-09-06T01:45:46;6.50;;;4.87;;
52586;SDS011;38480;52.724;6.436;2022-09-06T01:48:20;7.13;;;4.80;;
52586;SDS011;38480;52.724;6.436;2022-09-06T01:51:03;9.07;;;4.90;;
52586;SDS011;38480;52.724;6.436;2022-09-06T02:01:57;6.77;;;5.33;;
52586;SDS011;38480;52.724;6.436;2022-09-06T02:06:58;6.23;;;4.93;;
52586;SDS011;38480;52.724;6.436;2022-09-06T02:09:25;7.07;;;5.20;;
52586;SDS011;38480;52.724;6.436;2022-09-06T02:11:55;9.33;;;5.13;;
52586;SDS011;38480;52.724;6.436;2022-09-06T02:14:24;6.77;;;5.40;;
52586;SDS011;38480;52.724;6.436;2022-09-06T02:16:52;9.63;;;5.53;;
52586;SDS011;38480;52.724;6.436;2022-09-06T02:19:20;7.33;;;4.40;;
52586;SDS011;38480;52.724;6.436;2022-09-06T02:21:48;7.13;;;5.07;;
52586;SDS011;38480;52.724;6.436;2022-09-06T02:24:18;6.50;;;4.77;;
52586;SDS011;38480;52.724;6.436;2022-09-06T02:26:45;6.10;;;5.10;;
52586;SDS011;38480;52.724;6.436;2022-09-06T02:29:11;5.90;;;5.20;;
52586;SDS011;38480;52.724;6.436;2022-09-06T02:31:40;7.63;;;5.63;;
52586;SDS011;38480;52.724;6.436;2022-09-06T02:34:08;6.83;;;4.80;;
52586;SDS011;38480;52.724;6.436;2022-09-06T02:36:35;8.20;;;4.97;;
52586;SDS011;38480;52.724;6.436;2022-09-06T02:39:01;6.17;;;5.23;;
52586;SDS011;38480;52.724;6.436;2022-09-06T02:41:27;8.03;;;5.53;;
52586;SDS011;38480;52.724;6.436;2022-09-06T02:43:55;7.17;;;5.13;;
52586;SDS011;38480;52.724;6.436;2022-09-06T02:46:21;8.40;;;5.77;;
52586;SDS011;38480;52.724;6.436;2022-09-06T02:48:48;10.07;;;5.57;;
52586;SDS011;38480;52.724;6.436;2022-09-06T02:51:14;6.80;;;4.97;;
52586;SDS011;38480;52.724;6.436;2022-09-06T02:53:40;9.87;;;5.27;;
52586;SDS011;38480;52.724;6.436;2022-09-06T02:56:06;8.60;;;5.20;;
52586;SDS011;38480;52.724;6.436;2022-09-06T02:58:33;9.63;;;5.27;;
52586;SDS011;38480;52.724;6.436;2022-09-06T03:00:59;6.37;;;5.30;;
52586;SDS011;38480;52.724;6.436;2022-09-06T03:03:26;7.00;;;5.73;;
52586;SDS011;38480;52.724;6.436;2022-09-06T03:05:52;8.10;;;6.00;;
52586;SDS011;38480;52.724;6.436;2022-09-06T03:08:19;6.73;;;4.60;;
52586;SDS011;38480;52.724;6.436;2022-09-06T03:10:53;7.33;;;5.53;;
52586;SDS011;38480;52.724;6.436;2022-09-06T03:13:20;8.70;;;5.20;;
52586;SDS011;38480;52.724;6.436;2022-09-06T03:15:53;8.27;;;5.40;;
52586;SDS011;38480;52.724;6.436;2022-09-06T03:18:20;7.90;;;5.43;;
52586;SDS011;38480;52.724;6.436;2022-09-06T03:20:47;7.30;;;4.43;;
52586;SDS011;38480;52.724;6.436;2022-09-06T03:23:13;11.03;;;5.33;;
52586;SDS011;38480;52.724;6.436;2022-09-06T03:25:40;6.40;;;4.53;;
52586;SDS011;38480;52.724;6.436;2022-09-06T03:28:07;5.67;;;4.97;;
52586;SDS011;38480;52.724;6.436;2022-09-06T03:30:33;6.90;;;4.73;;
52586;SDS011;38480;52.724;6.436;2022-09-06T03:32:59;6.40;;;4.70;;
52586;SDS011;38480;52.724;6.436;2022-09-06T03:35:25;8.13;;;4.90;;
52586;SDS011;38480;52.724;6.436;2022-09-06T03:37:51;8.77;;;5.40;;
52586;SDS011;38480;52.724;6.436;2022-09-06T03:40:17;6.37;;;5.03;;
52586;SDS011;38480;52.724;6.436;2022-09-06T03:42:43;7.63;;;5.00;;
52586;SDS011;38480;52.724;6.436;2022-09-06T03:45:10;12.23;;;5.07;;
52586;SDS011;38480;52.724;6.436;2022-09-06T03:47:36;6.10;;;5.50;;
52586;SDS011;38480;52.724;6.436;2022-09-06T03:50:02;10.70;;;6.43;;
52586;SDS011;38480;52.724;6.436;2022-09-06T03:52:29;10.97;;;4.93;;
52586;SDS011;38480;52.724;6.436;2022-09-06T03:54:55;7.97;;;6.13;;
52586;SDS011;38480;52.724;6.436;2022-09-06T03:57:21;7.87;;;7.07;;
52586;SDS011;38480;52.724;6.436;2022-09-06T03:59:47;11.37;;;7.20;;
52586;SDS011;38480;52.724;6.436;2022-09-06T04:02:13;8.47;;;6.60;;
52586;SDS011;38480;52.724;6.436;2022-09-06T04:04:39;10.37;;;7.20;;
52586;SDS011;38480;52.724;6.436;2022-09-06T04:07:05;11.20;;;7.67;;
52586;SDS011;38480;52.724;6.436;2022-09-06T04:09:31;9.57;;;7.13;;
52586;SDS011;38480;52.724;6.436;2022-09-06T04:11:57;8.23;;;7.27;;
52586;SDS011;38480;52.724;6.436;2022-09-06T04:14:23;9.47;;;7.47;;
52586;SDS011;38480;52.724;6.436;2022-09-06T04:16:49;7.83;;;7.03;;
52586;SDS011;38480;52.724;6.436;2022-09-06T04:19:15;10.03;;;8.50;;
52586;SDS011;38480;52.724;6.436;2022-09-06T04:21:41;12.90;;;7.93;;
52586;SDS011;38480;52.724;6.436;2022-09-06T04:24:08;8.87;;;8.00;;
52586;SDS011;38480;52.724;6.436;2022-09-06T04:26:34;14.37;;;9.40;;
52586;SDS011;38480;52.724;6.436;2022-09-06T04:29:00;11.53;;;10.33;;
52586;SDS011;38480;52.724;6.436;2022-09-06T04:31:26;16.17;;;11.07;;
52586;SDS011;38480;52.724;6.436;2022-09-06T04:33:52;14.60;;;10.77;;
52586;SDS011;38480;52.724;6.436;2022-09-06T04:36:18;13.53;;;11.50;;
52586;SDS011;38480;52.724;6.436;2022-09-06T04:38:44;12.43;;;11.13;;
52586;SDS011;38480;52.724;6.436;2022-09-06T04:41:10;27.30;;;12.53;;
52586;SDS011;38480;52.724;6.436;2022-09-06T04:43:37;14.17;;;11.53;;
52586;SDS011;38480;52.724;6.436;2022-09-06T04:46:24;16.70;;;12.93;;
52586;SDS011;38480;52.724;6.436;2022-09-06T04:48:50;13.60;;;12.20;;
52586;SDS011;38480;52.724;6.436;2022-09-06T04:51:16;15.47;;;13.43;;
52586;SDS011;38480;52.724;6.436;2022-09-06T04:53:42;14.57;;;13.17;;
52586;SDS011;38480;52.724;6.436;2022-09-06T04:56:12;18.07;;;13.83;;
52586;SDS011;38480;52.724;6.436;2022-09-06T04:58:39;16.17;;;14.27;;
52586;SDS011;38480;52.724;6.436;2022-09-06T05:01:06;16.80;;;14.47;;
52586;SDS011;38480;52.724;6.436;2022-09-06T05:03:32;15.97;;;14.27;;
52586;SDS011;38480;52.724;6.436;2022-09-06T05:06:05;18.50;;;14.83;;
52586;SDS011;38480;52.724;6.436;2022-09-06T05:08:31;20.02;;;15.45;;
52586;SDS011;38480;52.724;6.436;2022-09-06T05:10:57;20.97;;;16.67;;
52586;SDS011;38480;52.724;6.436;2022-09-06T05:13:23;20.30;;;16.63;;
52586;SDS011;38480;52.724;6.436;2022-09-06T05:15:49;29.00;;;17.30;;
52586;SDS011;38480;52.724;6.436;2022-09-06T05:18:15;19.17;;;16.57;;
52586;SDS011;38480;52.724;6.436;2022-09-06T05:20:41;23.47;;;17.80;;
52586;SDS011;38480;52.724;6.436;2022-09-06T05:23:07;28.47;;;17.17;;
52586;SDS011;38480;52.724;6.436;2022-09-06T05:25:33;21.43;;;19.27;;
52586;SDS011;38480;52.724;6.436;2022-09-06T05:27:59;22.23;;;19.60;;
52586;SDS011;38480;52.724;6.436;2022-09-06T05:30:25;23.83;;;19.80;;
52586;SDS011;38480;52.724;6.436;2022-09-06T05:32:51;22.93;;;20.57;;
52586;SDS011;38480;52.724;6.436;2022-09-06T05:35:19;21.27;;;19.17;;
52586;SDS011;38480;52.724;6.436;2022-09-06T05:37:45;22.13;;;19.80;;
52586;SDS011;38480;52.724;6.436;2022-09-06T05:40:11;19.87;;;16.07;;
52586;SDS011;38480;52.724;6.436;2022-09-06T05:42:37;19.33;;;17.13;;
52586;SDS011;38480;52.724;6.436;2022-09-06T05:45:05;20.03;;;18.03;;
52586;SDS011;38480;52.724;6.436;2022-09-06T05:47:31;20.70;;;18.60;;
52586;SDS011;38480;52.724;6.436;2022-09-06T05:49:59;19.00;;;14.60;;
52586;SDS011;38480;52.724;6.436;2022-09-06T05:52:25;22.07;;;18.00;;
52586;SDS011;38480;52.724;6.436;2022-09-06T05:54:51;17.17;;;13.90;;
52586;SDS011;38480;52.724;6.436;2022-09-06T05:57:17;16.87;;;14.67;;
52586;SDS011;38480;52.724;6.436;2022-09-06T05:59:43;15.97;;;14.43;;
52586;SDS011;38480;52.724;6.436;2022-09-06T06:02:09;16.80;;;14.43;;
52586;SDS011;38480;52.724;6.436;2022-09-06T06:04:35;17.43;;;12.63;;
52586;SDS011;38480;52.724;6.436;2022-09-06T06:07:01;14.37;;;12.70;;
52586;SDS011;38480;52.724;6.436;2022-09-06T06:09:27;13.63;;;11.67;;
52586;SDS011;38480;52.724;6.436;2022-09-06T06:11:53;15.03;;;12.30;;
52586;SDS011;38480;52.724;6.436;2022-09-06T06:14:19;13.30;;;11.87;;
52586;SDS011;38480;52.724;6.436;2022-09-06T06:16:45;14.20;;;12.10;;
52586;SDS011;38480;52.724;6.436;2022-09-06T06:19:11;13.17;;;11.80;;
52586;SDS011;38480;52.724;6.436;2022-09-06T06:21:38;16.60;;;14.13;;
52586;SDS011;38480;52.724;6.436;2022-09-06T06:24:04;14.73;;;13.23;;
52586;SDS011;38480;52.724;6.436;2022-09-06T06:26:32;17.47;;;13.80;;
52586;SDS011;38480;52.724;6.436;2022-09-06T06:28:58;16.47;;;14.77;;
52586;SDS011;38480;52.724;6.436;2022-09-06T06:31:26;18.67;;;14.77;;
52586;SDS011;38480;52.724;6.436;2022-09-06T06:33:52;15.33;;;13.83;;
52586;SDS011;38480;52.724;6.436;2022-09-06T06:36:20;16.37;;;14.20;;
52586;SDS011;38480;52.724;6.436;2022-09-06T06:38:46;15.87;;;14.27;;
52586;SDS011;38480;52.724;6.436;2022-09-06T06:41:14;17.40;;;15.70;;
52586;SDS011;38480;52.724;6.436;2022-09-06T06:43:40;15.57;;;14.00;;
52586;SDS011;38480;52.724;6.436;2022-09-06T06:46:09;16.67;;;14.13;;
52586;SDS011;38480;52.724;6.436;2022-09-06T06:48:36;19.80;;;16.57;;
52586;SDS011;38480;52.724;6.436;2022-09-06T06:51:05;15.60;;;14.00;;
52586;SDS011;38480;52.724;6.436;2022-09-06T06:53:31;18.27;;;16.50;;
52586;SDS011;38480;52.724;6.436;2022-09-06T06:55:57;17.20;;;15.50;;
52586;SDS011;38480;52.724;6.436;2022-09-06T06:58:23;17.33;;;15.53;;
52586;SDS011;38480;52.724;6.436;2022-09-06T07:00:50;17.90;;;14.10;;
52586;SDS011;38480;52.724;6.436;2022-09-06T07:03:16;18.30;;;15.13;;
52586;SDS011;38480;52.724;6.436;2022-09-06T07:05:42;15.87;;;14.43;;
52586;SDS011;38480;52.724;6.436;2022-09-06T07:08:09;17.03;;;15.27;;
52586;SDS011;38480;52.724;6.436;2022-09-06T07:10:35;19.47;;;15.57;;
52586;SDS011;38480;52.724;6.436;2022-09-06T07:13:02;15.77;;;14.23;;
52586;SDS011;38480;52.724;6.436;2022-09-06T07:15:28;16.67;;;14.97;;
52586;SDS011;38480;52.724;6.436;2022-09-06T07:17:54;15.60;;;13.90;;
52586;SDS011;38480;52.724;6.436;2022-09-06T07:20:20;18.00;;;15.73;;
52586;SDS011;38480;52.724;6.436;2022-09-06T07:22:56;15.33;;;13.80;;
52586;SDS011;38480;52.724;6.436;2022-09-06T07:25:22;15.97;;;14.17;;
52586;SDS011;38480;52.724;6.436;2022-09-06T07:27:54;13.77;;;12.40;;
52586;SDS011;38480;52.724;6.436;2022-09-06T07:30:20;16.60;;;14.70;;
52586;SDS011;38480;52.724;6.436;2022-09-06T07:32:46;21.30;;;17.63;;
52586;SDS011;38480;52.724;6.436;2022-09-06T07:35:12;17.43;;;15.50;;
52586;SDS011;38480;52.724;6.436;2022-09-06T07:37:39;17.00;;;15.13;;
52586;SDS011;38480;52.724;6.436;2022-09-06T07:40:05;16.80;;;15.00;;
52586;SDS011;38480;52.724;6.436;2022-09-06T07:42:31;16.43;;;14.73;;
52586;SDS011;38480;52.724;6.436;2022-09-06T07:44:57;16.57;;;14.97;;
52586;SDS011;38480;52.724;6.436;2022-09-06T07:47:23;14.73;;;13.27;;
52586;SDS011;38480;52.724;6.436;2022-09-06T07:49:49;13.93;;;12.43;;
52586;SDS011;38480;52.724;6.436;2022-09-06T07:52:15;12.63;;;11.17;;
52586;SDS011;38480;52.724;6.436;2022-09-06T07:54:41;12.73;;;11.53;;
52586;SDS011;38480;52.724;6.436;2022-09-06T07:57:07;18.73;;;11.30;;
52586;SDS011;38480;52.724;6.436;2022-09-06T07:59:34;13.77;;;10.87;;
52586;SDS011;38480;52.724;6.436;2022-09-06T08:02:00;12.67;;;10.50;;
52586;SDS011;38480;52.724;6.436;2022-09-06T08:04:26;12.33;;;10.57;;
52586;SDS011;38480;52.724;6.436;2022-09-06T08:06:53;10.90;;;9.77;;
52586;SDS011;38480;52.724;6.436;2022-09-06T08:09:21;12.20;;;9.53;;
52586;SDS011;38480;52.724;6.436;2022-09-06T08:11:47;11.67;;;9.47;;
52586;SDS011;38480;52.724;6.436;2022-09-06T08:14:15;13.47;;;11.77;;
52586;SDS011;38480;52.724;6.436;2022-09-06T08:16:41;18.43;;;12.60;;
52586;SDS011;38480;52.724;6.436;2022-09-06T08:19:07;17.00;;;13.07;;
52586;SDS011;38480;52.724;6.436;2022-09-06T08:21:33;13.83;;;12.53;;
52586;SDS011;38480;52.724;6.436;2022-09-06T08:24:00;14.20;;;12.80;;
52586;SDS011;38480;52.724;6.436;2022-09-06T08:26:26;13.57;;;12.23;;
52586;SDS011;38480;52.724;6.436;2022-09-06T08:28:53;14.13;;;12.00;;
52586;SDS011;38480;52.724;6.436;2022-09-06T08:31:20;12.10;;;10.90;;
52586;SDS011;38480;52.724;6.436;2022-09-06T08:33:46;11.07;;;9.60;;
52586;SDS011;38480;52.724;6.436;2022-09-06T08:36:12;10.80;;;9.80;;
52586;SDS011;38480;52.724;6.436;2022-09-06T08:38:38;10.23;;;8.73;;
52586;SDS011;38480;52.724;6.436;2022-09-06T08:41:05;10.03;;;8.97;;
52586;SDS011;38480;52.724;6.436;2022-09-06T08:43:32;9.27;;;8.10;;
52586;SDS011;38480;52.724;6.436;2022-09-06T08:45:58;12.47;;;9.87;;
52586;SDS011;38480;52.724;6.436;2022-09-06T08:48:26;9.33;;;8.43;;
52586;SDS011;38480;52.724;6.436;2022-09-06T08:51:09;8.63;;;7.67;;
52586;SDS011;38480;52.724;6.436;2022-09-06T08:53:41;10.90;;;8.40;;
52586;SDS011;38480;52.724;6.436;2022-09-06T08:56:19;9.67;;;8.67;;
52586;SDS011;38480;52.724;6.436;2022-09-06T08:59:09;9.57;;;8.40;;
52586;SDS011;38480;52.724;6.436;2022-09-06T09:01:45;8.70;;;7.80;;
52586;SDS011;38480;52.724;6.436;2022-09-06T09:04:17;8.57;;;6.57;;
52586;SDS011;38480;52.724;6.436;2022-09-06T09:06:46;9.35;;;8.20;;
52586;SDS011;38480;52.724;6.436;2022-09-06T09:09:15;8.73;;;7.28;;
52586;SDS011;38480;52.724;6.436;2022-09-06T09:11:42;8.85;;;6.95;;
52586;SDS011;38480;52.724;6.436;2022-09-06T09:14:15;7.70;;;6.90;;
52586;SDS011;38480;52.724;6.436;2022-09-06T09:16:43;8.73;;;7.57;;
52586;SDS011;38480;52.724;6.436;2022-09-06T09:19:09;9.15;;;7.18;;
52586;SDS011;38480;52.724;6.436;2022-09-06T09:21:36;7.22;;;6.47;;
52586;SDS011;38480;52.724;6.436;2022-09-06T09:24:04;10.43;;;7.47;;
52586;SDS011;38480;52.724;6.436;2022-09-06T09:26:33;10.07;;;6.50;;
52586;SDS011;38480;52.724;6.436;2022-09-06T09:29:02;9.10;;;6.43;;
52586;SDS011;38480;52.724;6.436;2022-09-06T09:34:01;7.93;;;5.57;;
52586;SDS011;38480;52.724;6.436;2022-09-06T09:36:28;8.65;;;6.25;;
52586;SDS011;38480;52.724;6.436;2022-09-06T09:38:54;9.45;;;6.40;;
52586;SDS011;38480;52.724;6.436;2022-09-06T09:41:29;7.80;;;6.40;;
52586;SDS011;38480;52.724;6.436;2022-09-06T09:43:57;10.85;;;7.65;;
52586;SDS011;38480;52.724;6.436;2022-09-06T09:51:26;7.32;;;5.90;;
52586;SDS011;38480;52.724;6.436;2022-09-06T09:54:11;8.15;;;6.45;;
52586;SDS011;38480;52.724;6.436;2022-09-06T10:01:42;10.60;;;6.15;;
52586;SDS011;38480;52.724;6.436;2022-09-06T10:04:09;7.90;;;5.88;;
52586;SDS011;38480;52.724;6.436;2022-09-06T10:06:35;7.40;;;6.05;;
52586;SDS011;38480;52.724;6.436;2022-09-06T10:09:18;11.25;;;4.63;;
52586;SDS011;38480;52.724;6.436;2022-09-06T10:14:12;5.72;;;4.30;;
52586;SDS011;38480;52.724;6.436;2022-09-06T10:16:44;8.38;;;6.20;;
52586;SDS011;38480;52.724;6.436;2022-09-06T10:19:20;7.53;;;5.63;;
52586;SDS011;38480;52.724;6.436;2022-09-06T10:21:46;5.55;;;4.97;;
52586;SDS011;38480;52.724;6.436;2022-09-06T10:24:22;6.15;;;5.07;;
52586;SDS011;38480;52.724;6.436;2022-09-06T10:27:00;9.27;;;6.32;;
52586;SDS011;38480;52.724;6.436;2022-09-06T10:37:46;10.27;;;7.82;;
52586;SDS011;38480;52.724;6.436;2022-09-06T10:40:11;15.48;;;6.85;;
52586;SDS011;38480;52.724;6.436;2022-09-06T10:42:47;8.75;;;6.85;;
52586;SDS011;38480;52.724;6.436;2022-09-06T10:47:53;7.80;;;6.80;;
52586;SDS011;38480;52.724;6.436;2022-09-06T10:50:21;8.02;;;5.88;;
52586;SDS011;38480;52.724;6.436;2022-09-06T10:52:47;7.78;;;5.65;;
52586;SDS011;38480;52.724;6.436;2022-09-06T10:55:16;6.18;;;5.45;;
52586;SDS011;38480;52.724;6.436;2022-09-06T10:57:44;8.57;;;5.45;;
52586;SDS011;38480;52.724;6.436;2022-09-06T11:00:11;9.57;;;5.95;;
52586;SDS011;38480;52.724;6.436;2022-09-06T11:05:06;5.43;;;4.38;;
52586;SDS011;38480;52.724;6.436;2022-09-06T11:07:35;6.00;;;3.25;;
52586;SDS011;38480;52.724;6.436;2022-09-06T11:14:58;6.95;;;5.95;;
52586;SDS011;38480;52.724;6.436;2022-09-06T11:17:39;6.57;;;5.22;;
52586;SDS011;38480;52.724;6.436;2022-09-06T11:20:10;6.90;;;3.80;;
52586;SDS011;38480;52.724;6.436;2022-09-06T11:25:34;7.03;;;3.45;;
52586;SDS011;38480;52.724;6.436;2022-09-06T11:28:04;5.10;;;4.13;;
52586;SDS011;38480;52.724;6.436;2022-09-06T11:30:33;5.57;;;3.90;;
52586;SDS011;38480;52.724;6.436;2022-09-06T11:33:11;4.53;;;2.60;;
52586;SDS011;38480;52.724;6.436;2022-09-06T11:35:42;3.40;;;2.53;;
52586;SDS011;38480;52.724;6.436;2022-09-06T11:40:44;7.70;;;3.75;;
52586;SDS011;38480;52.724;6.436;2022-09-06T11:56:21;4.15;;;2.50;;
52586;SDS011;38480;52.724;6.436;2022-09-06T12:06:18;4.72;;;3.17;;
52586;SDS011;38480;52.724;6.436;2022-09-06T12:08:45;5.70;;;2.70;;
52586;SDS011;38480;52.724;6.436;2022-09-06T12:11:22;4.82;;;1.98;;
52586;SDS011;38480;52.724;6.436;2022-09-06T12:13:58;4.47;;;2.05;;
52586;SDS011;38480;52.724;6.436;2022-09-06T12:19:37;2.72;;;2.00;;
52586;SDS011;38480;52.724;6.436;2022-09-06T12:21:57;2.60;;;1.80;;
52586;SDS011;38480;52.724;6.436;2022-09-06T12:29:33;3.85;;;1.98;;
52586;SDS011;38480;52.724;6.436;2022-09-06T12:31:59;4.75;;;2.25;;
52586;SDS011;38480;52.724;6.436;2022-09-06T12:34:29;3.45;;;2.03;;
52586;SDS011;38480;52.724;6.436;2022-09-06T12:36:57;5.45;;;2.00;;
52586;SDS011;38480;52.724;6.436;2022-09-06T12:39:23;5.75;;;1.98;;
52586;SDS011;38480;52.724;6.436;2022-09-06T12:41:51;3.30;;;1.95;;
52586;SDS011;38480;52.724;6.436;2022-09-06T12:47:00;4.53;;;1.85;;
52586;SDS011;38480;52.724;6.436;2022-09-06T12:49:27;4.13;;;2.15;;
52586;SDS011;38480;52.724;6.436;2022-09-06T12:52:04;4.18;;;2.05;;
52586;SDS011;38480;52.724;6.436;2022-09-06T12:54:30;3.25;;;1.92;;
52586;SDS011;38480;52.724;6.436;2022-09-06T12:57:10;3.88;;;1.98;;
52586;SDS011;38480;52.724;6.436;2022-09-06T12:59:36;6.10;;;2.10;;
52586;SDS011;38480;52.724;6.436;2022-09-06T13:02:07;2.92;;;1.67;;
52586;SDS011;38480;52.724;6.436;2022-09-06T13:04:41;5.10;;;2.25;;
52586;SDS011;38480;52.724;6.436;2022-09-06T13:07:12;4.15;;;1.90;;
52586;SDS011;38480;52.724;6.436;2022-09-06T13:09:40;4.50;;;1.90;;
52586;SDS011;38480;52.724;6.436;2022-09-06T13:12:08;4.35;;;2.00;;
52586;SDS011;38480;52.724;6.436;2022-09-06T13:14:34;7.55;;;2.40;;
52586;SDS011;38480;52.724;6.436;2022-09-06T13:17:01;5.28;;;1.80;;
52586;SDS011;38480;52.724;6.436;2022-09-06T13:19:29;4.45;;;1.92;;
52586;SDS011;38480;52.724;6.436;2022-09-06T13:21:55;3.28;;;1.65;;
52586;SDS011;38480;52.724;6.436;2022-09-06T13:29:53;5.50;;;1.67;;
52586;SDS011;38480;52.724;6.436;2022-09-06T13:32:19;4.55;;;1.70;;
52586;SDS011;38480;52.724;6.436;2022-09-06T13:34:48;2.63;;;1.55;;
52586;SDS011;38480;52.724;6.436;2022-09-06T13:37:21;3.33;;;1.90;;
52586;SDS011;38480;52.724;6.436;2022-09-06T13:39:49;4.75;;;1.95;;
52586;SDS011;38480;52.724;6.436;2022-09-06T13:42:31;4.00;;;1.95;;
52586;SDS011;38480;52.724;6.436;2022-09-06T13:47:44;4.00;;;2.00;;
52586;SDS011;38480;52.724;6.436;2022-09-06T13:50:10;2.47;;;1.58;;
52586;SDS011;38480;52.724;6.436;2022-09-06T13:52:36;5.30;;;1.80;;
52586;SDS011;38480;52.724;6.436;2022-09-06T13:55:02;4.50;;;1.70;;
52586;SDS011;38480;52.724;6.436;2022-09-06T13:57:28;6.32;;;2.15;;
52586;SDS011;38480;52.724;6.436;2022-09-06T13:59:54;4.00;;;1.55;;
52586;SDS011;38480;52.724;6.436;2022-09-06T14:02:20;4.90;;;1.65;;
52586;SDS011;38480;52.724;6.436;2022-09-06T14:04:48;7.30;;;1.73;;
52586;SDS011;38480;52.724;6.436;2022-09-06T14:07:15;4.43;;;1.88;;
52586;SDS011;38480;52.724;6.436;2022-09-06T14:09:41;5.90;;;2.08;;
52586;SDS011;38480;52.724;6.436;2022-09-06T14:12:07;4.88;;;2.00;;
52586;SDS011;38480;52.724;6.436;2022-09-06T14:14:34;3.75;;;1.90;;
52586;SDS011;38480;52.724;6.436;2022-09-06T14:17:00;4.68;;;1.70;;
52586;SDS011;38480;52.724;6.436;2022-09-06T14:19:26;2.13;;;1.50;;
52586;SDS011;38480;52.724;6.436;2022-09-06T14:21:52;2.90;;;1.80;;
52586;SDS011;38480;52.724;6.436;2022-09-06T14:24:18;3.55;;;1.70;;
52586;SDS011;38480;52.724;6.436;2022-09-06T14:26:45;6.95;;;1.70;;
52586;SDS011;38480;52.724;6.436;2022-09-06T14:29:11;3.38;;;1.77;;
52586;SDS011;38480;52.724;6.436;2022-09-06T14:31:37;3.88;;;1.65;;
52586;SDS011;38480;52.724;6.436;2022-09-06T14:34:03;5.80;;;1.90;;
52586;SDS011;38480;52.724;6.436;2022-09-06T14:36:30;3.45;;;2.00;;
52586;SDS011;38480;52.724;6.436;2022-09-06T14:38:57;4.43;;;1.48;;
52586;SDS011;38480;52.724;6.436;2022-09-06T14:41:23;4.00;;;1.60;;
52586;SDS011;38480;52.724;6.436;2022-09-06T14:43:51;4.65;;;1.48;;
52586;SDS011;38480;52.724;6.436;2022-09-06T14:46:17;3.20;;;1.88;;
52586;SDS011;38480;52.724;6.436;2022-09-06T14:48:44;5.53;;;2.15;;
52586;SDS011;38480;52.724;6.436;2022-09-06T14:51:11;3.95;;;2.00;;
52586;SDS011;38480;52.724;6.436;2022-09-06T14:53:38;4.47;;;2.20;;
52586;SDS011;38480;52.724;6.436;2022-09-06T14:56:05;3.25;;;1.90;;
52586;SDS011;38480;52.724;6.436;2022-09-06T14:58:31;6.30;;;2.22;;
52586;SDS011;38480;52.724;6.436;2022-09-06T15:03:36;5.93;;;2.00;;
52586;SDS011;38480;52.724;6.436;2022-09-06T15:06:03;5.18;;;1.70;;
52586;SDS011;38480;52.724;6.436;2022-09-06T15:08:30;7.32;;;1.85;;
52586;SDS011;38480;52.724;6.436;2022-09-06T15:10:56;3.20;;;1.80;;
52586;SDS011;38480;52.724;6.436;2022-09-06T15:13:22;3.45;;;1.85;;
52586;SDS011;38480;52.724;6.436;2022-09-06T15:15:49;3.85;;;1.70;;
52586;SDS011;38480;52.724;6.436;2022-09-06T15:18:15;6.38;;;1.95;;
52586;SDS011;38480;52.724;6.436;2022-09-06T15:20:41;6.03;;;1.60;;
52586;SDS011;38480;52.724;6.436;2022-09-06T15:23:08;3.08;;;1.67;;
52586;SDS011;38480;52.724;6.436;2022-09-06T15:25:34;4.53;;;1.92;;
52586;SDS011;38480;52.724;6.436;2022-09-06T15:28:00;3.97;;;1.65;;
52586;SDS011;38480;52.724;6.436;2022-09-06T15:30:27;4.40;;;1.80;;
52586;SDS011;38480;52.724;6.436;2022-09-06T15:32:53;4.38;;;1.40;;
52586;SDS011;38480;52.724;6.436;2022-09-06T15:35:19;5.10;;;1.40;;
52586;SDS011;38480;52.724;6.436;2022-09-06T15:37:45;4.80;;;1.88;;
52586;SDS011;38480;52.724;6.436;2022-09-06T15:40:12;2.95;;;1.50;;
52586;SDS011;38480;52.724;6.436;2022-09-06T15:42:38;8.23;;;1.90;;
52586;SDS011;38480;52.724;6.436;2022-09-06T15:45:05;6.55;;;1.73;;
52586;SDS011;38480;52.724;6.436;2022-09-06T15:47:31;9.48;;;2.00;;
52586;SDS011;38480;52.724;6.436;2022-09-06T15:49:59;4.90;;;1.65;;
52586;SDS011;38480;52.724;6.436;2022-09-06T15:52:26;7.93;;;1.80;;
52586;SDS011;38480;52.724;6.436;2022-09-06T15:54:52;7.18;;;1.80;;
52586;SDS011;38480;52.724;6.436;2022-09-06T15:57:36;5.22;;;1.65;;
52586;SDS011;38480;52.724;6.436;2022-09-06T16:00:03;4.88;;;1.80;;
52586;SDS011;38480;52.724;6.436;2022-09-06T16:02:29;5.53;;;1.80;;
52586;SDS011;38480;52.724;6.436;2022-09-06T16:04:55;3.13;;;1.83;;
52586;SDS011;38480;52.724;6.436;2022-09-06T16:07:21;6.00;;;1.95;;
52586;SDS011;38480;52.724;6.436;2022-09-06T16:09:49;2.97;;;1.50;;
52586;SDS011;38480;52.724;6.436;2022-09-06T16:12:15;5.55;;;1.83;;
52586;SDS011;38480;52.724;6.436;2022-09-06T16:14:41;5.10;;;1.65;;
52586;SDS011;38480;52.724;6.436;2022-09-06T16:17:07;5.20;;;1.95;;
52586;SDS011;38480;52.724;6.436;2022-09-06T16:19:33;5.03;;;1.73;;
52586;SDS011;38480;52.724;6.436;2022-09-06T16:21:59;4.63;;;1.90;;
52586;SDS011;38480;52.724;6.436;2022-09-06T16:24:26;4.85;;;2.03;;
52586;SDS011;38480;52.724;6.436;2022-09-06T16:26:52;4.68;;;1.75;;
52586;SDS011;38480;52.724;6.436;2022-09-06T16:29:18;3.58;;;1.70;;
52586;SDS011;38480;52.724;6.436;2022-09-06T16:31:44;2.58;;;1.63;;
52586;SDS011;38480;52.724;6.436;2022-09-06T16:34:11;5.35;;;1.63;;